Time;durP1;ratioP1;P1;durP2;ratioP2;P2;SDS_P1;SDS_P2;PMS_P1;PMS_P2;Temp;Humidity;BMP_temperature;BMP_pressure;BME280_temperature;BME280_humidity;BME280_pressure;Samples;Min_cycle;Max_cycle;Signal;HPM_P1;HPM_P2
2023/02/20 00:00:07;;;;;;;12.40;3.30;;;;;;;4.30;71.68;100296.15;670148;1265;139879;-87
2023/02/20 00:15:31;;;;;;;17.50;5.00;;;;;;;4.23;72.58;100296.20;670626;1260;138633;-85
2023/02/20 00:30:34;;;;;;;12.70;5.80;;;;;;;4.19;73.25;100293.35;672220;1263;139177;-87
2023/02/20 00:45:37;;;;;;;4.80;2.60;;;;;;;4.37;72.39;100282.05;670146;1275;138352;-87
2023/02/20 01:00:40;;;;;;;5.90;1.70;;;;;;;4.55;72.92;100273.09;669935;1263;138739;-86
2023/02/20 01:15:44;;;;;;;5.50;2.30;;;;;;;4.54;72.51;100280.61;671924;1263;138755;-87
2023/02/20 01:30:47;;;;;;;4.70;1.80;;;;;;;4.64;72.42;100284.64;669632;1263;138328;-88
2023/02/20 01:45:51;;;;;;;6.10;2.10;;;;;;;4.61;73.03;100279.63;670366;1264;138265;-86
2023/02/20 02:00:56;;;;;;;4.40;2.20;;;;;;;4.52;73.12;100256.85;670572;1264;138115;-87
2023/02/20 02:16:08;;;;;;;8.10;2.10;;;;;;;4.48;73.74;100258.67;668559;1279;139064;-87
2023/02/20 02:31:49;;;;;;;8.40;2.80;;;;;;;4.25;74.77;100252.98;670095;1266;138638;-85
2023/02/20 02:47:04;;;;;;;5.20;2.00;;;;;;;4.38;74.50;100240.02;669887;1263;137807;-87
2023/02/20 03:02:13;;;;;;;6.60;2.10;;;;;;;4.30;74.34;100227.76;671371;1264;138234;-87
2023/02/20 03:17:30;;;;;;;9.10;2.40;;;;;;;4.22;74.54;100218.23;670707;1264;139369;-86
2023/02/20 03:48:05;;;;;;;6.90;2.50;;;;;;;3.95;75.50;100193.71;672274;1264;138641;-88
2023/02/20 04:03:19;;;;;;;6.80;2.90;;;;;;;3.99;76.26;100185.87;674363;1264;139538;-87
2023/02/20 04:18:27;;;;;;;12.40;4.80;;;;;;;4.07;75.98;100179.27;672462;1263;138541;-87
2023/02/20 04:33:30;;;;;;;13.70;4.70;;;;;;;4.14;76.00;100176.09;674746;1260;139711;-86
2023/02/20 04:48:38;;;;;;;4.60;2.50;;;;;;;4.04;76.85;100165.65;672495;1273;527959;-88
2023/02/20 05:03:41;;;;;;;8.00;3.50;;;;;;;4.03;77.15;100145.27;671182;1276;138240;-89
2023/02/20 05:18:45;;;;;;;6.40;3.10;;;;;;;4.01;77.62;100110.61;669370;1275;138556;-87
2023/02/20 05:33:48;;;;;;;11.40;3.40;;;;;;;3.93;78.57;100097.64;670662;1264;138555;-87
2023/02/20 05:48:52;;;;;;;8.30;3.00;;;;;;;4.04;78.74;100090.02;670077;1264;139107;-87
2023/02/20 06:03:57;;;;;;;16.50;8.60;;;;;;;4.12;79.49;100071.38;673973;1260;138253;-87
2023/02/20 06:19:01;;;;;;;8.50;4.20;;;;;;;4.30;79.52;100031.79;671405;1262;138707;-85
2023/02/20 06:34:06;;;;;;;8.60;4.70;;;;;;;4.47;80.16;100013.11;670675;1264;138550;-87
2023/02/20 06:49:09;;;;;;;30.70;14.10;;;;;;;4.38;82.64;99990.36;670942;1267;139135;-86
2023/02/20 07:04:21;;;;;;;24.90;10.10;;;;;;;4.26;84.22;99977.84;671271;1276;138540;-90
2023/02/20 07:19:26;;;;;;;26.60;12.40;;;;;;;4.06;87.06;99950.05;670944;1264;138610;-87
2023/02/20 07:34:29;;;;;;;25.50;9.60;;;;;;;3.97;88.97;99909.63;682272;1260;138040;-84
2023/02/20 07:49:33;;;;;;;38.80;17.20;;;;;;;3.94;90.65;99866.73;682332;1263;138269;-85
2023/02/20 08:04:36;;;;;;;29.50;13.10;;;;;;;3.80;93.91;99825.48;682393;1259;138065;-88
2023/02/20 08:19:40;;;;;;;20.50;11.10;;;;;;;3.79;95.31;99779.31;682386;1259;138099;-89
2023/02/20 08:34:43;;;;;;;21.90;12.00;;;;;;;3.79;96.01;99734.57;682538;1264;138330;-88
2023/02/20 08:49:47;;;;;;;28.60;15.40;;;;;;;3.94;96.43;99671.91;682486;1263;138862;-88
2023/02/20 09:04:50;;;;;;;22.10;12.80;;;;;;;3.90;97.89;99616.33;682462;1264;138314;-87
2023/02/20 09:19:54;;;;;;;21.10;10.60;;;;;;;3.96;97.28;99580.23;682494;1262;138280;-88
2023/02/20 09:34:57;;;;;;;30.40;17.50;;;;;;;4.04;97.58;99551.30;682745;1259;140383;-87
2023/02/20 09:50:09;;;;;;;16.50;8.70;;;;;;;4.04;98.84;99505.45;682572;1258;138157;-85
2023/02/20 10:05:25;;;;;;;23.80;11.80;;;;;;;4.32;99.97;99391.85;682639;1262;139023;-86
2023/02/20 10:20:47;;;;;;;22.30;10.30;;;;;;;4.44;99.96;99343.20;682612;1259;138429;-88
2023/02/20 10:36:07;;;;;;;30.30;11.50;;;;;;;4.55;100.00;99268.71;682621;1263;138031;-87
2023/02/20 10:51:24;;;;;;;85.30;38.20;;;;;;;5.04;100.00;99267.96;682700;1263;138333;-82
2023/02/20 11:07:17;;;;;;;23.20;13.80;;;;;;;5.40;100.00;99243.52;682445;1263;140552;-84
2023/02/20 11:22:44;;;;;;;20.20;12.10;;;;;;;5.64;100.00;99199.20;682572;1258;138597;-86
2023/02/20 11:38:18;;;;;;;77.10;43.10;;;;;;;5.93;100.00;99175.80;682814;1262;138339;-88
2023/02/20 11:53:23;;;;;;;56.70;29.60;;;;;;;6.34;100.00;99125.17;683428;1259;138334;-86
2023/02/20 12:18:13;;;;;;;35.90;19.20;;;;;;;6.85;100.00;99068.04;654266;1301;544924;-87
2023/02/20 12:34:03;;;;;;;56.30;27.50;;;;;;;6.95;100.00;99041.70;671241;1276;140048;-89
2023/02/20 12:49:07;;;;;;;74.60;28.50;;;;;;;7.13;100.00;99030.32;675201;1275;138146;-88
2023/02/20 13:04:24;;;;;;;43.00;21.70;;;;;;;7.33;100.00;99010.22;677122;1274;138002;-87
2023/02/20 13:20:23;;;;;;;38.80;19.90;;;;;;;7.52;100.00;98979.57;666096;1289;565073;-87
2023/02/20 13:35:51;;;;;;;35.40;18.20;;;;;;;7.63;100.00;98945.61;678531;1275;138070;-87
2023/02/20 13:51:13;;;;;;;42.50;22.60;;;;;;;7.86;100.00;98895.16;676714;1275;138114;-88
2023/02/20 14:06:20;;;;;;;42.20;23.30;;;;;;;8.08;100.00;98862.84;677455;1274;137497;-88
2023/02/20 14:21:28;;;;;;;25.20;15.10;;;;;;;8.18;100.00;98847.06;674124;1273;137961;-88
2023/02/20 14:36:47;;;;;;;35.40;18.50;;;;;;;8.36;100.00;98851.56;671043;1273;138933;-89
2023/02/20 14:51:50;;;;;;;33.70;19.80;;;;;;;8.56;100.00;98864.28;670093;1275;138651;-90
2023/02/20 15:07:03;;;;;;;40.00;20.70;;;;;;;8.52;100.00;98859.54;671557;1279;137435;-92
2023/02/20 15:22:33;;;;;;;33.50;19.50;;;;;;;8.75;100.00;98855.09;670362;1272;137255;-91
2023/02/20 15:37:36;;;;;;;43.30;21.80;;;;;;;9.00;100.00;98831.58;670018;1280;138231;-90
2023/02/20 15:52:53;;;;;;;40.30;22.20;;;;;;;9.02;100.00;98817.58;669260;1271;141127;-90
2023/02/20 16:07:57;;;;;;;56.40;27.60;;;;;;;9.04;100.00;98799.09;669691;1267;138579;-90
2023/02/20 16:23:00;;;;;;;34.80;18.30;;;;;;;9.14;100.00;98791.61;671125;1266;138690;-88
2023/02/20 16:38:04;;;;;;;44.10;26.30;;;;;;;9.33;100.00;98767.41;669928;1269;139008;-92
2023/02/20 16:53:11;;;;;;;53.10;26.90;;;;;;;9.35;100.00;98749.27;672927;1281;141034;-91
2023/02/20 17:08:15;;;;;;;47.90;19.60;;;;;;;9.49;100.00;98762.95;669792;1269;139746;-91
2023/02/20 17:23:18;;;;;;;58.50;23.10;;;;;;;9.60;100.00;98786.34;670551;1277;139184;-90
2023/02/20 17:38:23;;;;;;;22.20;9.40;;;;;;;9.61;100.00;98784.50;670956;1269;138383;-90
2023/02/20 17:53:27;;;;;;;72.90;30.20;;;;;;;9.53;100.00;98783.80;674316;1269;141347;-90
2023/02/20 18:08:31;;;;;;;26.50;14.60;;;;;;;9.71;100.00;98789.42;673151;1269;139467;-90
2023/02/20 18:23:34;;;;;;;17.40;8.90;;;;;;;9.89;100.00;98785.34;672363;1261;138718;-90
2023/02/20 18:38:38;;;;;;;50.10;25.80;;;;;;;9.88;100.00;98803.95;671524;1266;137541;-91
2023/02/20 18:53:44;;;;;;;11.80;6.60;;;;;;;9.94;100.00;98824.79;674031;1263;140261;-90
2023/02/20 19:08:48;;;;;;;32.60;12.80;;;;;;;9.93;100.00;98832.02;675585;1267;138533;-86
2023/02/20 19:23:52;;;;;;;55.70;21.60;;;;;;;10.08;100.00;98815.09;677309;1264;138561;-92
2023/02/20 19:38:55;;;;;;;60.20;33.30;;;;;;;10.12;100.00;98821.44;677760;1267;138788;-92
2023/02/20 19:54:09;;;;;;;58.50;24.30;;;;;;;10.21;100.00;98817.36;678694;1265;138016;-89
2023/02/20 20:09:18;;;;;;;49.10;16.10;;;;;;;9.92;100.00;98812.73;676430;1266;138395;-89
2023/02/20 20:24:37;;;;;;;26.60;10.30;;;;;;;9.91;100.00;98828.42;678488;1269;137957;-90
2023/02/20 20:39:42;;;;;;;13.20;4.40;;;;;;;9.78;100.00;98833.87;677592;1268;138562;-92
2023/02/20 20:54:48;;;;;;;26.30;7.20;;;;;;;9.82;95.59;98843.20;674967;1268;138290;-93
2023/02/20 21:09:52;;;;;;;12.70;3.60;;;;;;;9.86;86.75;98840.28;681459;1268;137428;-92
2023/02/20 21:25:02;;;;;;;22.70;5.00;;;;;;;9.74;83.30;98835.81;681707;1268;137826;-91
2023/02/20 21:40:47;;;;;;;14.10;5.00;;;;;;;9.59;82.40;98827.11;681374;1270;136940;-90
2023/02/20 21:55:58;;;;;;;8.70;3.00;;;;;;;9.80;80.41;98828.94;678808;1275;138315;-92
